Time;durP1;ratioP1;P1;durP2;ratioP2;P2;SDS_P1;SDS_P2;PMS_P1;PMS_P2;Temp;Humidity;BMP_temperature;BMP_pressure;BME280_temperature;BME280_humidity;BME280_pressure;Samples;Min_cycle;Max_cycle;Signal;HPM_P1;HPM_P2
2022/04/01 00:02:05;;;;;;;11.87;5.93;;;;;;;3.95;62.70;98675.19;4941719;28;97536;-81
2022/04/01 00:04:30;;;;;;;12.20;5.67;;;;;;;4.29;62.46;98724.25;4904730;28;101235;-84
2022/04/01 00:06:56;;;;;;;13.67;6.80;;;;;;;4.14;62.03;98716.16;4917914;28;97427;-82
2022/04/01 00:09:22;;;;;;;10.43;5.53;;;;;;;3.92;60.98;98683.09;4934579;28;96651;-81
2022/04/01 00:11:48;;;;;;;10.33;5.70;;;;;;;3.94;61.07;98702.06;4917884;28;100922;-81
2022/04/01 00:14:14;;;;;;;11.93;5.67;;;;;;;3.79;61.50;98668.81;4918163;28;101134;-82
2022/04/01 00:16:39;;;;;;;9.57;5.30;;;;;;;3.98;61.24;98695.84;4917998;28;97233;-81
2022/04/01 00:19:05;;;;;;;9.57;5.90;;;;;;;4.17;60.89;98719.47;4917156;28;97299;-82
2022/04/01 00:21:31;;;;;;;9.00;5.53;;;;;;;4.19;60.99;98709.03;4917998;28;101120;-81
2022/04/01 00:23:57;;;;;;;11.30;6.03;;;;;;;4.23;60.61;98711.47;4918374;28;101133;-85
2022/04/01 00:26:22;;;;;;;10.97;5.90;;;;;;;4.17;60.81;98714.28;4917956;28;97176;-81
2022/04/01 00:28:48;;;;;;;10.13;5.50;;;;;;;4.22;60.33;98715.00;4917552;28;97098;-81
2022/04/01 00:31:14;;;;;;;11.10;5.60;;;;;;;4.18;59.97;98718.56;4933663;28;98583;-81
2022/04/01 00:33:41;;;;;;;9.53;5.20;;;;;;;4.04;60.39;98716.47;4917782;28;101133;-81
2022/04/01 00:36:08;;;;;;;9.53;5.03;;;;;;;4.02;59.91;98714.81;4921066;28;97965;-81
2022/04/01 00:38:34;;;;;;;8.40;4.90;;;;;;;4.06;60.81;98722.44;4920492;28;96811;-81
2022/04/01 00:41:00;;;;;;;7.60;4.60;;;;;;;4.06;60.65;98712.03;4917867;28;98068;-82
2022/04/01 00:43:30;;;;;;;11.40;5.43;;;;;;;3.95;60.74;98706.34;4917789;28;101346;-81
2022/04/01 00:45:57;;;;;;;8.60;4.93;;;;;;;3.59;61.33;98674.66;4933567;28;97073;-81
2022/04/01 00:48:23;;;;;;;13.37;5.30;;;;;;;3.71;62.38;98722.72;4918021;28;96796;-82
2022/04/01 00:50:49;;;;;;;9.33;5.50;;;;;;;3.71;62.87;98720.13;4913750;28;101435;-81
2022/04/01 00:53:17;;;;;;;12.70;5.43;;;;;;;3.79;62.81;98713.78;4932598;28;97817;-81
2022/04/01 00:55:43;;;;;;;8.37;4.93;;;;;;;3.58;63.13;98689.38;4923085;28;97289;-81
2022/04/01 00:58:09;;;;;;;10.07;5.03;;;;;;;3.66;63.28;98690.88;4909445;28;97064;-82
2022/04/01 01:00:36;;;;;;;11.87;5.30;;;;;;;3.82;63.03;98715.44;4942792;28;101487;-81
2022/04/01 01:03:03;;;;;;;9.03;5.10;;;;;;;3.88;63.45;98715.25;4931479;28;101484;-81
2022/04/01 01:05:30;;;;;;;9.50;5.07;;;;;;;3.96;63.62;98726.25;4905550;28;96707;-87
2022/04/01 01:07:57;;;;;;;9.20;5.70;;;;;;;3.91;63.43;98711.72;4932001;28;96779;-81
2022/04/01 01:10:24;;;;;;;10.97;5.60;;;;;;;3.90;63.63;98704.78;4905436;28;100043;-83
2022/04/01 01:12:50;;;;;;;9.20;5.63;;;;;;;4.00;63.77;98721.78;4903891;28;98434;-81
2022/04/01 01:15:18;;;;;;;7.93;5.23;;;;;;;4.04;64.04;98724.25;4900959;28;97764;-81
2022/04/01 01:17:47;;;;;;;11.40;5.43;;;;;;;4.07;64.04;98718.94;4927312;28;97144;-81
2022/04/01 01:20:15;;;;;;;8.23;5.20;;;;;;;3.84;63.80;98685.94;4926242;28;97534;-82
2022/04/01 01:22:42;;;;;;;8.77;5.17;;;;;;;4.05;63.86;98717.31;4904139;28;102026;-81
2022/04/01 01:25:09;;;;;;;9.07;5.03;;;;;;;4.07;63.61;98720.66;4926597;28;96745;-82
2022/04/01 01:27:36;;;;;;;9.87;4.97;;;;;;;4.02;63.15;98707.84;4916699;28;96922;-81
2022/04/01 01:30:03;;;;;;;12.60;5.77;;;;;;;3.89;63.75;98708.31;4900890;28;101631;-82
2022/04/01 01:32:29;;;;;;;6.20;4.50;;;;;;;3.86;64.12;98696.25;4920764;28;101524;-84
2022/04/01 01:34:56;;;;;;;10.57;5.67;;;;;;;3.90;64.19;98704.78;4924728;28;96750;-81
2022/04/01 01:37:22;;;;;;;9.53;4.97;;;;;;;3.91;64.14;98704.75;4928450;28;96814;-81
2022/04/01 01:39:48;;;;;;;10.63;4.97;;;;;;;3.92;64.07;98711.63;4935932;28;101546;-80
2022/04/01 01:42:15;;;;;;;8.23;5.37;;;;;;;3.92;63.95;98706.44;4929093;28;101530;-81
2022/04/01 01:44:41;;;;;;;11.73;5.33;;;;;;;3.92;64.22;98705.59;4920011;28;97430;-81
2022/04/01 01:47:08;;;;;;;15.07;4.40;;;;;;;3.87;64.10;98703.19;4917400;28;97638;-82
2022/04/01 01:49:34;;;;;;;7.73;4.73;;;;;;;3.91;64.22;98701.31;4947345;28;98008;-82
2022/04/01 01:54:45;;;;;;;11.50;5.03;;;;;;;3.72;64.31;98682.88;4938962;28;96894;-85
2022/04/01 01:57:21;;;;;;;7.20;4.50;;;;;;;3.86;64.22;98693.66;4920692;28;96882;-82
2022/04/01 01:59:47;;;;;;;8.73;4.80;;;;;;;3.83;64.16;98691.19;4919713;28;100892;-84
2022/04/01 02:02:13;;;;;;;9.90;5.20;;;;;;;3.82;64.39;98708.50;4929109;28;101643;-81
2022/04/01 02:04:40;;;;;;;8.47;4.80;;;;;;;3.62;64.12;98690.13;4919797;28;97129;-83
2022/04/01 02:07:07;;;;;;;9.60;5.73;;;;;;;3.51;64.36;98671.44;4920532;28;96758;-81
2022/04/01 02:09:32;;;;;;;11.80;5.83;;;;;;;3.70;64.73;98689.88;4918057;28;98200;-82
2022/04/01 02:11:58;;;;;;;8.40;4.10;;;;;;;3.70;64.18;98698.53;4919767;28;101742;-81
2022/04/01 02:14:25;;;;;;;10.77;4.80;;;;;;;3.67;64.59;98693.44;4906954;28;97172;-81
2022/04/01 02:16:51;;;;;;;9.83;5.63;;;;;;;3.68;64.64;98699.47;4908333;28;97243;-81
2022/04/01 02:19:21;;;;;;;9.10;4.93;;;;;;;3.75;64.48;98693.16;4905621;28;102120;-81
2022/04/01 02:21:48;;;;;;;10.40;6.10;;;;;;;3.54;64.36;98654.03;4920032;28;102852;-81
2022/04/01 02:24:14;;;;;;;10.60;4.90;;;;;;;3.74;64.03;98694.91;4907144;28;96868;-82
2022/04/01 02:26:40;;;;;;;9.50;4.63;;;;;;;3.70;64.30;98689.88;4904007;28;96856;-82
2022/04/01 02:29:08;;;;;;;12.93;4.53;;;;;;;3.63;64.16;98682.28;4918599;28;102031;-82
2022/04/01 02:31:50;;;;;;;9.87;5.37;;;;;;;3.67;64.07;98684.81;4921431;28;98611;-82
2022/04/01 02:34:54;;;;;;;9.20;4.30;;;;;;;3.66;64.21;98691.72;4917579;28;96916;-81
2022/04/01 02:37:21;;;;;;;10.57;5.10;;;;;;;3.70;64.01;98688.13;4920052;28;96996;-84
2022/04/01 02:39:47;;;;;;;10.50;4.80;;;;;;;3.70;64.11;98682.94;4935304;28;98737;-81
2022/04/01 02:42:13;;;;;;;6.73;4.50;;;;;;;3.68;63.67;98687.34;4919358;28;101469;-81
2022/04/01 02:44:39;;;;;;;7.90;4.80;;;;;;;3.70;63.73;98684.69;4925419;28;96739;-81
2022/04/01 02:47:06;;;;;;;9.00;4.77;;;;;;;3.65;64.18;98682.25;4916296;28;96866;-82
2022/04/01 02:49:33;;;;;;;9.77;4.60;;;;;;;3.51;63.56;98679.22;4929313;28;97972;-88
2022/04/01 02:52:03;;;;;;;7.13;4.17;;;;;;;3.46;63.63;98691.50;4904862;28;101912;-80
2022/04/01 02:54:35;;;;;;;6.90;4.13;;;;;;;3.38;64.13;98668.41;4900403;28;96971;-86
2022/04/01 02:57:02;;;;;;;8.47;4.73;;;;;;;3.36;64.16;98662.41;4943498;28;96791;-81
2022/04/01 02:59:29;;;;;;;8.90;4.97;;;;;;;3.51;64.22;98692.19;4920238;28;100628;-83
2022/04/01 03:01:55;;;;;;;7.07;4.60;;;;;;;3.43;64.01;98678.63;4914203;28;101659;-81
2022/04/01 03:04:22;;;;;;;9.10;4.70;;;;;;;3.47;63.49;98680.22;4899012;28;97101;-86
2022/04/01 03:06:57;;;;;;;9.20;4.50;;;;;;;3.40;64.12;98687.34;4904096;28;97079;-84
2022/04/01 03:09:23;;;;;;;8.63;4.07;;;;;;;3.48;64.15;98687.13;4913507;28;101852;-82
2022/04/01 03:12:09;;;;;;;7.57;5.00;;;;;;;3.38;63.64;98684.81;4931623;28;97727;-81
2022/04/01 03:15:02;;;;;;;9.23;4.50;;;;;;;3.33;63.43;98683.25;4930140;28;97074;-81
2022/04/01 03:17:33;;;;;;;8.50;5.17;;;;;;;3.30;63.57;98686.78;4935349;28;97145;-87
2022/04/01 03:20:04;;;;;;;9.20;4.23;;;;;;;3.20;63.74;98684.50;4918038;28;99219;-81
2022/04/01 03:22:34;;;;;;;16.17;4.70;;;;;;;3.02;63.86;98678.97;4916739;28;99999;-82
2022/04/01 03:25:00;;;;;;;13.13;4.60;;;;;;;3.01;64.49;98689.41;4906382;28;97147;-82
2022/04/01 03:27:28;;;;;;;6.20;4.23;;;;;;;3.12;64.28;98685.59;4920700;28;97621;-82
2022/04/01 03:29:54;;;;;;;11.97;4.40;;;;;;;2.87;64.32;98648.31;4919057;28;101438;-81
2022/04/01 03:32:20;;;;;;;8.33;4.77;;;;;;;3.21;64.76;98684.47;4921622;28;101295;-81
2022/04/01 03:34:47;;;;;;;9.83;4.70;;;;;;;3.21;64.40;98681.03;4904066;28;97151;-82
2022/04/01 03:37:13;;;;;;;13.13;4.80;;;;;;;3.18;64.79;98682.81;4920044;28;97044;-84
2022/04/01 03:39:41;;;;;;;6.17;4.10;;;;;;;3.25;64.86;98683.47;4917689;28;101692;-82
2022/04/01 03:42:08;;;;;;;9.67;4.97;;;;;;;3.21;64.88;98686.22;4902727;28;97990;-81
2022/04/01 03:44:41;;;;;;;7.23;4.00;;;;;;;3.22;64.63;98675.78;4930437;28;96704;-84
2022/04/01 03:47:39;;;;;;;9.50;4.50;;;;;;;3.19;64.81;98678.47;4927023;28;96840;-81
2022/04/01 03:50:07;;;;;;;7.87;3.90;;;;;;;3.21;64.99;98681.03;4885181;28;101655;-82
2022/04/01 03:52:33;;;;;;;11.13;4.77;;;;;;;3.28;64.97;98680.78;4902581;28;99689;-85
2022/04/01 03:55:03;;;;;;;10.13;4.23;;;;;;;3.16;64.55;98661.25;4896760;28;96668;-80
2022/04/01 03:57:56;;;;;;;8.43;4.73;;;;;;;3.34;64.55;98685.78;4905500;28;97468;-80
2022/04/01 04:00:42;;;;;;;8.43;4.67;;;;;;;3.32;64.56;98679.81;4903705;28;99199;-81
2022/04/01 04:03:09;;;;;;;9.77;4.17;;;;;;;3.34;65.00;98690.97;4910785;28;101573;-82
2022/04/01 04:05:36;;;;;;;9.03;4.67;;;;;;;3.31;64.39;98687.63;4891499;28;97228;-89
2022/04/01 04:08:04;;;;;;;6.37;4.70;;;;;;;3.28;64.43;98678.19;4899041;28;96927;-81
2022/04/01 04:10:32;;;;;;;8.63;4.77;;;;;;;3.30;64.55;98676.41;4914456;28;101586;-82
2022/04/01 04:13:16;;;;;;;10.50;5.07;;;;;;;3.16;64.31;98653.47;4904290;28;100847;-81
2022/04/01 04:16:04;;;;;;;11.37;5.10;;;;;;;3.11;64.16;98647.59;4896689;28;98250;-84
2022/04/01 04:18:52;;;;;;;10.40;5.00;;;;;;;3.26;64.41;98677.41;4903039;28;98061;-84
2022/04/01 04:21:49;;;;;;;8.97;5.53;;;;;;;3.25;63.87;98693.00;4895920;28;101207;-82
2022/04/01 04:24:43;;;;;;;11.67;5.37;;;;;;;3.20;64.09;98682.78;4911449;28;101735;-81
2022/04/01 04:27:16;;;;;;;6.40;5.07;;;;;;;3.22;63.93;98688.75;4893069;28;97161;-86
2022/04/01 04:29:47;;;;;;;11.20;5.27;;;;;;;3.15;63.62;98688.09;4883251;28;96898;-82
2022/04/01 04:32:39;;;;;;;11.07;5.07;;;;;;;3.16;63.72;98707.09;4898788;28;101755;-81
2022/04/01 04:35:08;;;;;;;9.03;4.50;;;;;;;3.10;64.08;98697.75;4898200;28;101403;-81
2022/04/01 04:37:44;;;;;;;12.40;6.10;;;;;;;3.15;63.84;98701.06;4889714;28;96741;-87
2022/04/01 04:40:12;;;;;;;9.37;6.00;;;;;;;3.11;63.70;98702.06;4869812;28;97660;-83
2022/04/01 04:42:45;;;;;;;10.93;5.23;;;;;;;3.11;63.80;98711.56;4894869;28;100861;-82
2022/04/01 04:45:17;;;;;;;11.53;5.20;;;;;;;3.11;63.96;98719.34;4904889;28;101619;-83
2022/04/01 04:47:46;;;;;;;9.97;4.83;;;;;;;3.10;63.69;98699.50;4891413;28;97039;-81
2022/04/01 04:50:13;;;;;;;9.73;5.50;;;;;;;3.15;63.91;98706.25;4914101;28;97341;-82
2022/04/01 04:52:42;;;;;;;10.90;5.17;;;;;;;3.07;63.44;98702.19;4882941;28;101072;-83
2022/04/01 04:55:10;;;;;;;8.17;5.03;;;;;;;3.08;64.26;98696.94;4898983;28;101534;-81
2022/04/01 04:57:57;;;;;;;9.23;5.30;;;;;;;2.93;63.81;98705.16;4913966;28;97014;-84
2022/04/01 05:00:23;;;;;;;8.63;4.93;;;;;;;2.88;64.15;98694.94;4880394;28;97064;-82
2022/04/01 05:03:22;;;;;;;9.17;5.57;;;;;;;2.87;64.40;98706.19;4897030;28;101622;-81
2022/04/01 05:05:54;;;;;;;10.07;5.30;;;;;;;2.82;64.44;98710.69;4910438;28;101546;-81
2022/04/01 05:08:48;;;;;;;10.83;5.40;;;;;;;2.93;65.10;98712.94;4916131;28;97102;-82
2022/04/01 05:12:21;;;;;;;12.03;4.97;;;;;;;2.98;64.38;98711.06;4911061;28;98656;-79
2022/04/01 05:15:11;;;;;;;9.53;4.60;;;;;;;3.01;64.51;98705.81;4926868;28;97437;-87
2022/04/01 05:17:52;;;;;;;9.13;5.20;;;;;;;3.04;64.43;98710.06;4883953;28;101692;-85
2022/04/01 05:20:23;;;;;;;8.30;5.30;;;;;;;2.89;64.57;98683.69;4929359;28;96793;-84
2022/04/01 05:22:54;;;;;;;10.83;5.13;;;;;;;3.08;64.20;98701.28;4899821;28;97301;-86
2022/04/01 05:25:24;;;;;;;10.33;4.97;;;;;;;3.08;64.85;98703.88;4893681;28;100324;-85
2022/04/01 05:27:53;;;;;;;11.95;5.30;;;;;;;3.12;64.66;98706.34;4882978;28;101080;-86
2022/04/01 05:30:25;;;;;;;8.57;4.83;;;;;;;3.06;64.39;98700.50;4886151;28;96885;-86
2022/04/01 05:33:08;;;;;;;10.90;5.50;;;;;;;3.05;64.46;98711.75;4913275;28;97165;-85
2022/04/01 05:35:40;;;;;;;6.53;5.10;;;;;;;2.87;64.55;98682.84;4883079;28;101725;-86
2022/04/01 05:38:08;;;;;;;12.33;5.37;;;;;;;3.00;64.36;98704.09;4910910;28;101628;-88
2022/04/01 05:40:35;;;;;;;12.13;5.43;;;;;;;2.75;63.78;98678.03;4901472;28;96726;-85
2022/04/01 05:43:02;;;;;;;9.67;5.43;;;;;;;2.80;64.19;98711.59;4901131;28;97921;-86
2022/04/01 05:45:49;;;;;;;8.07;5.40;;;;;;;2.75;64.29;98711.72;4907419;28;97642;-95
2022/04/01 05:48:17;;;;;;;7.97;5.77;;;;;;;2.64;64.14;98713.75;4909750;28;100725;-87
2022/04/01 05:50:43;;;;;;;8.90;5.27;;;;;;;2.37;64.11;98667.00;4913439;28;97930;-90
2022/04/01 05:53:10;;;;;;;11.77;5.50;;;;;;;2.72;64.01;98723.03;4901771;28;97005;-81
2022/04/01 05:55:46;;;;;;;11.07;6.10;;;;;;;2.62;64.46;98703.44;4899591;28;101504;-81
2022/04/01 05:58:12;;;;;;;12.87;6.07;;;;;;;2.82;64.44;98727.94;4935232;28;102180;-81
2022/04/01 06:00:46;;;;;;;14.97;6.20;;;;;;;2.56;64.38;98708.81;4915591;28;97448;-85
2022/04/01 06:03:43;;;;;;;10.63;5.97;;;;;;;2.64;64.30;98716.34;4941187;28;97279;-82
2022/04/01 06:06:32;;;;;;;12.13;6.97;;;;;;;2.70;64.34;98729.13;4933707;28;101649;-81
2022/04/01 06:09:25;;;;;;;8.57;6.10;;;;;;;2.71;64.38;98725.66;4915898;28;99743;-81
2022/04/01 06:12:29;;;;;;;8.67;6.47;;;;;;;2.81;64.19;98736.63;4933596;28;96831;-83
2022/04/01 06:15:35;;;;;;;11.30;5.97;;;;;;;2.82;64.60;98739.19;4920568;28;97154;-81
2022/04/01 06:18:37;;;;;;;;;;;;;;;2.87;63.84;98739.88;4922248;28;97205;-82
2022/04/01 06:21:04;;;;;;;9.07;6.27;;;;;;;2.75;64.24;98727.28;4923528;28;101194;-93
2022/04/01 06:24:04;;;;;;;9.07;5.67;;;;;;;2.80;63.82;98737.53;4924488;28;99658;-81
2022/04/01 06:26:33;;;;;;;10.23;6.97;;;;;;;2.77;63.84;98740.19;4931430;28;98020;-84
2022/04/01 06:29:02;;;;;;;13.87;6.47;;;;;;;2.49;63.93;98707.25;4903938;28;101058;-83
2022/04/01 06:31:29;;;;;;;11.30;6.03;;;;;;;2.72;64.27;98742.91;4910029;28;101222;-83
2022/04/01 06:34:15;;;;;;;9.37;6.47;;;;;;;2.80;63.86;98747.88;4922261;28;97422;-84
2022/04/01 06:37:03;;;;;;;12.63;6.33;;;;;;;2.74;63.64;98746.31;4933411;28;97777;-82
2022/04/01 06:39:40;;;;;;;12.40;6.33;;;;;;;2.75;63.75;98755.78;4905235;28;101956;-84
2022/04/01 06:42:09;;;;;;;8.93;6.43;;;;;;;2.81;64.09;98755.59;4945991;28;100891;-81
2022/04/01 06:45:01;;;;;;;10.43;6.33;;;;;;;2.68;63.68;98744.75;4916285;28;97132;-83
2022/04/01 06:47:47;;;;;;;7.93;6.13;;;;;;;2.73;64.38;98747.19;4886055;28;97202;-84
2022/04/01 06:50:16;;;;;;;9.10;6.53;;;;;;;2.77;64.16;98745.38;4919677;28;101217;-84
2022/04/01 06:53:00;;;;;;;11.53;7.40;;;;;;;2.75;64.49;98740.22;4924430;28;97651;-89
2022/04/01 06:55:46;;;;;;;13.27;7.03;;;;;;;2.55;64.37;98699.31;4916837;28;97660;-85
2022/04/01 06:58:26;;;;;;;13.10;6.87;;;;;;;2.67;63.97;98727.47;4883024;28;97379;-84
2022/04/01 07:00:58;;;;;;;10.40;6.97;;;;;;;2.70;64.20;98716.19;4924955;28;101184;-85
2022/04/01 07:03:23;;;;;;;7.50;6.00;;;;;;;2.78;63.68;98731.53;4922497;28;100140;-84
2022/04/01 07:05:51;;;;;;;10.70;5.87;;;;;;;2.79;64.45;98731.47;4912386;28;97253;-84
2022/04/01 07:08:17;;;;;;;11.73;6.47;;;;;;;2.92;64.36;98740.59;4899743;28;97044;-86
2022/04/01 07:10:43;;;;;;;10.60;6.47;;;;;;;2.89;64.27;98740.69;4893401;28;101582;-85
2022/04/01 07:13:10;;;;;;;16.10;6.17;;;;;;;2.83;63.97;98747.81;4895274;28;100991;-82
2022/04/01 07:15:36;;;;;;;13.67;6.80;;;;;;;2.89;64.22;98747.63;4916263;28;97240;-85
2022/04/01 07:18:02;;;;;;;10.10;7.30;;;;;;;2.86;64.29;98745.13;4899105;28;97550;-85
2022/04/01 07:20:28;;;;;;;9.63;5.97;;;;;;;2.76;64.32;98725.53;4898603;28;97589;-78
2022/04/01 07:22:54;;;;;;;9.47;6.07;;;;;;;2.94;64.07;98758.72;4905438;28;99173;-77
2022/04/01 07:25:21;;;;;;;8.83;6.40;;;;;;;2.93;63.38;98757.00;4914306;28;96659;-85
2022/04/01 07:27:46;;;;;;;7.57;6.07;;;;;;;2.91;63.51;98757.06;4911855;28;97526;-79
2022/04/01 07:30:12;;;;;;;9.07;6.10;;;;;;;2.94;63.25;98754.38;4888700;28;101096;-81
2022/04/01 07:32:39;;;;;;;9.77;6.57;;;;;;;2.88;63.50;98764.06;4888117;28;101297;-85
2022/04/01 07:35:09;;;;;;;12.33;6.03;;;;;;;2.87;63.24;98752.00;4914603;28;96714;-82
2022/04/01 07:37:35;;;;;;;10.93;6.03;;;;;;;2.81;63.62;98747.00;4894352;28;97211;-79
2022/04/01 07:40:00;;;;;;;10.83;6.83;;;;;;;2.81;63.25;98745.25;4905263;28;99042;-79
2022/04/01 07:42:29;;;;;;;10.73;6.80;;;;;;;2.72;63.40;98733.38;4884607;28;100889;-81
2022/04/01 07:44:55;;;;;;;11.40;6.77;;;;;;;2.93;63.51;98768.22;4906468;28;97585;-79
2022/04/01 07:47:21;;;;;;;9.67;6.73;;;;;;;2.82;63.32;98759.91;4890413;28;97421;-80
2022/04/01 07:49:48;;;;;;;11.43;6.70;;;;;;;2.75;63.30;98739.38;4896076;28;101714;-82
2022/04/01 07:52:16;;;;;;;10.50;6.10;;;;;;;2.84;63.28;98763.28;4890834;28;101208;-80
2022/04/01 07:54:43;;;;;;;16.10;7.10;;;;;;;2.81;63.19;98759.94;4882013;28;97170;-84
2022/04/01 07:57:10;;;;;;;13.47;7.10;;;;;;;2.93;63.44;98775.16;4879481;28;97524;-81
2022/04/01 07:59:36;;;;;;;10.40;6.80;;;;;;;2.90;63.17;98768.31;4891985;28;101766;-79
2022/04/01 08:02:02;;;;;;;9.37;7.17;;;;;;;2.94;63.39;98772.53;4891220;28;101068;-79
2022/04/01 08:04:28;;;;;;;10.63;7.40;;;;;;;2.93;63.51;98770.81;4874529;28;97106;-80
2022/04/01 08:06:55;;;;;;;8.67;6.97;;;;;;;2.66;63.62;98724.94;4889266;28;96864;-80
2022/04/01 08:09:21;;;;;;;11.60;7.17;;;;;;;2.73;63.58;98754.97;4884320;28;101485;-80
2022/04/01 08:11:47;;;;;;;12.87;8.30;;;;;;;2.89;63.72;98784.75;4896336;28;98089;-80
2022/04/01 08:14:13;;;;;;;14.73;7.50;;;;;;;2.89;63.17;98787.34;4896824;28;97201;-82
2022/04/01 08:16:39;;;;;;;12.33;7.43;;;;;;;2.91;63.20;98789.91;4886849;28;97799;-89
2022/04/01 08:19:05;;;;;;;10.97;7.37;;;;;;;2.97;63.52;98789.75;4909048;28;100179;-92
2022/04/01 08:21:31;;;;;;;11.63;8.03;;;;;;;3.02;63.12;98794.78;4924186;28;97464;-76
2022/04/01 08:23:57;;;;;;;10.27;7.90;;;;;;;3.05;63.29;98792.09;4893463;28;98071;-76
2022/04/01 08:26:24;;;;;;;10.87;7.73;;;;;;;3.10;63.45;98787.66;4909430;28;97084;-75
2022/04/01 08:28:50;;;;;;;10.47;8.30;;;;;;;3.05;63.26;98789.50;4903016;28;101714;-76
2022/04/01 08:31:16;;;;;;;13.47;8.43;;;;;;;3.09;63.13;98788.56;4893785;28;101611;-75
2022/04/01 08:33:42;;;;;;;12.10;8.67;;;;;;;3.14;62.60;98794.44;4928399;28;97315;-76
2022/04/01 08:36:08;;;;;;;13.97;7.77;;;;;;;3.03;62.98;98786.97;4896618;28;97182;-76
2022/04/01 08:38:33;;;;;;;11.47;7.80;;;;;;;3.06;63.52;98805.03;4894576;28;101299;-75
2022/04/01 08:40:59;;;;;;;14.43;8.70;;;;;;;2.78;62.93;98753.09;4872004;28;101205;-75
2022/04/01 08:43:31;;;;;;;14.87;8.17;;;;;;;3.15;63.12;98812.56;4909197;28;97046;-75
2022/04/01 08:45:59;;;;;;;11.63;8.02;;;;;;;3.14;63.08;98815.19;4911983;28;97165;-78
2022/04/01 08:48:27;;;;;;;14.23;8.07;;;;;;;3.12;63.00;98809.22;4908882;28;99237;-77
2022/04/01 08:50:54;;;;;;;13.50;8.53;;;;;;;3.09;62.77;98819.66;4909760;28;100847;-77
2022/04/01 08:53:20;;;;;;;12.60;7.97;;;;;;;3.09;62.86;98812.75;4917729;28;97080;-76
2022/04/01 08:55:53;;;;;;;13.07;8.27;;;;;;;2.83;63.22;98789.28;4918024;28;98010;-83
2022/04/01 08:58:19;;;;;;;10.67;7.63;;;;;;;2.98;63.52;98813.91;4900729;28;101344;-76
2022/04/01 09:00:49;;;;;;;15.13;8.57;;;;;;;3.12;63.67;98824.78;4891844;28;97397;-80
2022/04/01 09:03:16;;;;;;;14.77;7.57;;;;;;;2.93;63.52;98798.47;4910215;28;97165;-76
2022/04/01 09:06:03;;;;;;;13.97;7.73;;;;;;;3.03;63.31;98822.44;4907542;28;97232;-75
2022/04/01 09:08:37;;;;;;;14.90;7.70;;;;;;;3.08;63.66;98820.53;4911278;28;101896;-76
2022/04/01 09:11:18;;;;;;;13.70;8.43;;;;;;;3.03;63.30;98786.13;4928116;28;97823;-75
2022/04/01 09:13:44;;;;;;;12.30;7.57;;;;;;;3.19;63.34;98818.50;4882463;28;97021;-84
2022/04/01 09:16:23;;;;;;;13.80;7.60;;;;;;;3.29;63.15;98821.72;4896816;28;97219;-77
2022/04/01 09:18:48;;;;;;;16.87;7.83;;;;;;;3.17;63.42;98796.94;4927971;28;97492;-80
2022/04/01 09:21:14;;;;;;;14.50;8.03;;;;;;;3.28;63.54;98823.44;4880931;28;101669;-82
2022/04/01 09:23:46;;;;;;;13.73;7.97;;;;;;;3.17;63.52;98799.53;4908731;28;98260;-82
2022/04/01 09:26:11;;;;;;;11.80;7.57;;;;;;;3.32;62.89;98830.25;4935330;28;96779;-80
2022/04/01 09:28:39;;;;;;;10.20;7.47;;;;;;;3.11;63.37;98794.53;4895195;28;101274;-80
2022/04/01 09:31:10;;;;;;;10.80;6.60;;;;;;;3.24;63.36;98826.16;4923183;28;101352;-80
2022/04/01 09:33:42;;;;;;;14.05;7.10;;;;;;;3.33;63.43;98844.91;4918948;28;97158;-80
2022/04/01 09:36:11;;;;;;;10.98;6.68;;;;;;;3.24;63.37;98839.13;4912436;28;97459;-82
2022/04/01 09:38:37;;;;;;;15.20;7.03;;;;;;;3.10;63.36;98804.06;4905985;28;101436;-81
2022/04/01 09:41:04;;;;;;;12.73;6.93;;;;;;;3.14;62.75;98842.00;4943035;28;97878;-80
2022/04/01 09:43:37;;;;;;;12.40;6.57;;;;;;;3.14;62.96;98834.22;4882134;28;96927;-79
2022/04/01 09:46:22;;;;;;;12.83;7.03;;;;;;;3.06;62.98;98810.22;4932094;28;97082;-78
2022/04/01 09:48:48;;;;;;;11.53;6.93;;;;;;;3.23;62.95;98840.88;4908616;28;97439;-81
2022/04/01 09:51:14;;;;;;;16.53;7.33;;;;;;;3.34;63.22;98844.00;4890238;28;101202;-80
2022/04/01 09:53:40;;;;;;;12.60;6.90;;;;;;;3.34;62.75;98833.63;4899040;28;97451;-79
2022/04/01 09:56:06;;;;;;;13.00;6.70;;;;;;;3.42;62.76;98835.16;4916179;28;97172;-80
2022/04/01 09:58:32;;;;;;;12.67;6.57;;;;;;;3.45;62.80;98837.69;4905386;28;101220;-79
2022/04/01 10:01:02;;;;;;;11.53;6.63;;;;;;;3.42;62.05;98838.59;4890005;28;101042;-81
2022/04/01 10:03:28;;;;;;;10.97;5.97;;;;;;;3.36;61.96;98847.41;4883831;28;97062;-80
2022/04/01 10:05:55;;;;;;;11.43;5.73;;;;;;;3.38;61.86;98831.81;4915891;28;97220;-80
2022/04/01 10:08:25;;;;;;;9.50;5.83;;;;;;;3.38;61.98;98839.59;4899564;28;98062;-80
2022/04/01 10:10:51;;;;;;;13.10;6.33;;;;;;;3.47;62.31;98839.34;4899272;28;101391;-80
2022/04/01 10:13:29;;;;;;;12.03;6.70;;;;;;;3.51;61.61;98842.69;4894896;28;97234;-79
2022/04/01 10:15:57;;;;;;;13.67;5.87;;;;;;;3.46;61.75;98841.97;4915192;28;97529;-77
2022/04/01 10:18:23;;;;;;;12.10;6.00;;;;;;;3.46;61.84;98839.38;4879871;28;101619;-80
2022/04/01 10:20:53;;;;;;;11.20;5.97;;;;;;;3.53;61.80;98841.75;4898645;28;100288;-86
2022/04/01 10:23:21;;;;;;;11.40;5.60;;;;;;;3.54;61.70;98846.03;4895946;28;97341;-89
2022/04/01 10:25:50;;;;;;;10.00;5.87;;;;;;;3.57;61.61;98845.94;4875397;28;97386;-90
2022/04/01 10:28:17;;;;;;;10.63;6.00;;;;;;;3.50;61.67;98831.47;4897650;28;101308;-88
2022/04/01 10:30:51;;;;;;;8.83;5.33;;;;;;;3.53;61.44;98838.31;4892216;28;98463;-85
2022/04/01 10:33:35;;;;;;;9.07;5.30;;;;;;;3.51;61.79;98845.28;4887081;28;97271;-86
2022/04/01 10:36:22;;;;;;;12.23;6.40;;;;;;;3.50;61.47;98849.63;4897839;28;97234;-87
2022/04/01 10:38:50;;;;;;;16.23;5.97;;;;;;;3.53;61.77;98854.72;4896293;28;101359;-91
2022/04/01 10:41:16;;;;;;;11.07;5.60;;;;;;;3.52;61.53;98841.78;4921253;28;97980;-87
2022/04/01 10:43:43;;;;;;;15.13;5.80;;;;;;;3.58;61.16;98850.25;4899431;28;97099;-88
2022/04/01 10:46:11;;;;;;;13.13;5.47;;;;;;;3.56;61.30;98844.25;4907684;28;97809;-87
2022/04/01 10:51:41;;;;;;;9.97;5.47;;;;;;;3.61;61.14;98854.50;4921343;28;101275;-87
2022/04/01 10:54:10;;;;;;;14.77;6.13;;;;;;;3.63;61.32;98852.69;4915466;28;97017;-87
2022/04/01 10:56:36;;;;;;;14.27;6.03;;;;;;;3.65;61.00;98855.28;4934315;28;97309;-87
2022/04/01 10:59:17;;;;;;;14.67;6.13;;;;;;;3.65;60.83;98853.50;4900642;28;100989;-87
2022/04/01 11:01:49;;;;;;;15.43;5.43;;;;;;;3.62;60.98;98866.59;4902211;28;101860;-87
2022/04/01 11:04:14;;;;;;;11.30;5.00;;;;;;;3.67;60.97;98862.13;4928317;28;96904;-87
2022/04/01 11:06:58;;;;;;;15.93;5.73;;;;;;;3.66;61.07;98864.75;4931099;28;96816;-86
2022/04/01 11:09:50;;;;;;;14.23;5.57;;;;;;;3.65;60.87;98863.06;4926076;28;101679;-84
2022/04/01 11:12:16;;;;;;;11.27;5.70;;;;;;;3.59;60.43;98862.34;4912505;28;101899;-82
2022/04/01 11:14:56;;;;;;;14.13;5.30;;;;;;;3.62;60.33;98869.19;4929764;28;96732;-85
2022/04/01 11:17:34;;;;;;;11.13;5.60;;;;;;;3.68;61.03;98852.59;4934754;28;97193;-85
2022/04/01 11:20:12;;;;;;;18.43;5.80;;;;;;;3.67;60.49;98859.53;4933819;28;101583;-85
2022/04/01 11:22:46;;;;;;;14.50;6.13;;;;;;;3.66;60.55;98854.38;4918890;28;101254;-84
2022/04/01 11:25:33;;;;;;;11.93;5.73;;;;;;;3.76;60.35;98855.81;4934890;28;97113;-82
2022/04/01 11:28:01;;;;;;;10.73;5.37;;;;;;;3.79;60.69;98850.53;4915187;28;97066;-83
2022/04/01 11:30:29;;;;;;;12.10;5.10;;;;;;;3.71;60.60;98842.94;4911296;28;101453;-82
2022/04/01 11:32:59;;;;;;;10.93;5.20;;;;;;;3.73;60.27;98850.72;4919072;28;100876;-83
2022/04/01 11:35:34;;;;;;;11.80;5.77;;;;;;;3.66;59.96;98836.19;4932512;28;96884;-85
2022/04/01 11:38:00;;;;;;;20.23;6.43;;;;;;;3.70;59.84;98848.22;4928659;28;97082;-82
2022/04/01 11:40:28;;;;;;;14.30;5.93;;;;;;;3.57;60.06;98821.75;4918051;28;97218;-82
2022/04/01 11:43:02;;;;;;;12.17;5.40;;;;;;;3.73;59.97;98854.16;4918016;28;97384;-83
2022/04/01 11:45:51;;;;;;;14.10;5.30;;;;;;;3.72;59.48;98847.22;4934677;28;96641;-81
2022/04/01 11:48:18;;;;;;;11.73;6.13;;;;;;;3.75;59.53;98854.97;4916462;28;97280;-83
2022/04/01 11:50:50;;;;;;;10.93;5.73;;;;;;;3.73;59.64;98851.56;4920806;28;101046;-81
2022/04/01 11:53:24;;;;;;;12.25;5.78;;;;;;;3.72;60.14;98854.19;4917704;28;97997;-81
2022/04/01 11:55:50;;;;;;;11.37;5.70;;;;;;;3.67;59.83;98850.91;4917381;28;97887;-72
2022/04/01 11:58:15;;;;;;;21.13;6.00;;;;;;;3.63;60.10;98861.34;4934109;28;97271;-85
2022/04/01 12:00:41;;;;;;;15.07;4.90;;;;;;;3.61;59.90;98846.72;4905170;28;101444;-76